sensor_id;sensor_type;location;lat;lon;timestamp;pressure;altitude;pressure_sealevel;temperature;humidity
76285;BME280;65096;50.998;7.098;2022-12-01T00:00:52;101870.16;;;5.71;70.38
76285;BME280;65096;50.998;7.098;2022-12-01T00:03:19;101876.09;;;5.70;70.17
76285;BME280;65096;50.998;7.098;2022-12-01T00:05:46;101870.81;;;5.67;70.04
76285;BME280;65096;50.998;7.098;2022-12-01T00:08:13;101876.00;;;5.69;70.29
76285;BME280;65096;50.998;7.098;2022-12-01T00:10:41;101868.31;;;5.69;70.69
76285;BME280;65096;50.998;7.098;2022-12-01T00:13:07;101876.09;;;5.70;70.23
76285;BME280;65096;50.998;7.098;2022-12-01T00:15:35;101874.38;;;5.71;70.34
76285;BME280;65096;50.998;7.098;2022-12-01T00:18:03;101881.22;;;5.70;70.49
76285;BME280;65096;50.998;7.098;2022-12-01T00:20:32;101876.88;;;5.69;70.55
76285;BME280;65096;50.998;7.098;2022-12-01T00:22:59;101877.84;;;5.71;70.41
76285;BME280;65096;50.998;7.098;2022-12-01T00:25:26;101877.97;;;5.74;70.19
76285;BME280;65096;50.998;7.098;2022-12-01T00:27:55;101873.66;;;5.73;70.21
76285;BME280;65096;50.998;7.098;2022-12-01T00:30:22;101873.59;;;5.72;70.42
76285;BME280;65096;50.998;7.098;2022-12-01T00:32:48;101856.88;;;5.61;70.29
76285;BME280;65096;50.998;7.098;2022-12-01T00:35:16;101856.00;;;5.60;70.78
76285;BME280;65096;50.998;7.098;2022-12-01T00:37:43;101869.13;;;5.68;70.47
76285;BME280;65096;50.998;7.098;2022-12-01T00:40:10;101864.03;;;5.68;70.50
76285;BME280;65096;50.998;7.098;2022-12-01T00:42:37;101867.34;;;5.65;70.75
76285;BME280;65096;50.998;7.098;2022-12-01T00:45:06;101870.81;;;5.67;70.69
76285;BME280;65096;50.998;7.098;2022-12-01T00:47:33;101872.66;;;5.70;70.75
76285;BME280;65096;50.998;7.098;2022-12-01T00:50:00;101872.78;;;5.73;70.60
76285;BME280;65096;50.998;7.098;2022-12-01T00:52:26;101870.88;;;5.69;70.47
76285;BME280;65096;50.998;7.098;2022-12-01T00:54:53;101865.63;;;5.66;70.97
76285;BME280;65096;50.998;7.098;2022-12-01T00:57:20;101873.38;;;5.67;70.57
76285;BME280;65096;50.998;7.098;2022-12-01T00:59:46;101868.19;;;5.66;71.01
76285;BME280;65096;50.998;7.098;2022-12-01T01:02:14;101871.75;;;5.69;70.48
76285;BME280;65096;50.998;7.098;2022-12-01T01:04:44;101873.38;;;5.67;70.83
76285;BME280;65096;50.998;7.098;2022-12-01T01:07:11;101873.31;;;5.66;70.74
76285;BME280;65096;50.998;7.098;2022-12-01T01:09:37;101876.75;;;5.66;70.53
76285;BME280;65096;50.998;7.098;2022-12-01T01:12:04;101884.44;;;5.66;70.61
76285;BME280;65096;50.998;7.098;2022-12-01T01:14:31;101883.59;;;5.67;70.70
76285;BME280;65096;50.998;7.098;2022-12-01T01:16:57;101883.66;;;5.69;70.67
76285;BME280;65096;50.998;7.098;2022-12-01T01:19:25;101891.34;;;5.69;70.93
76285;BME280;65096;50.998;7.098;2022-12-01T01:21:52;101888.00;;;5.70;70.83
76285;BME280;65096;50.998;7.098;2022-12-01T01:24:19;101888.88;;;5.70;70.81
76285;BME280;65096;50.998;7.098;2022-12-01T01:26:45;101890.56;;;5.70;70.89
76285;BME280;65096;50.998;7.098;2022-12-01T01:29:12;101886.34;;;5.70;70.65
76285;BME280;65096;50.998;7.098;2022-12-01T01:31:39;101890.63;;;5.71;70.90
76285;BME280;65096;50.998;7.098;2022-12-01T01:34:05;101892.09;;;5.66;70.65
76285;BME280;65096;50.998;7.098;2022-12-01T01:36:33;101891.34;;;5.69;70.61
76285;BME280;65096;50.998;7.098;2022-12-01T01:39:00;101893.84;;;5.67;70.65
76285;BME280;65096;50.998;7.098;2022-12-01T01:41:27;101898.03;;;5.65;71.06
76285;BME280;65096;50.998;7.098;2022-12-01T01:43:56;101892.22;;;5.69;70.56
76285;BME280;65096;50.998;7.098;2022-12-01T01:46:24;101893.19;;;5.71;70.40
76285;BME280;65096;50.998;7.098;2022-12-01T01:48:54;101886.91;;;5.65;70.68
76285;BME280;65096;50.998;7.098;2022-12-01T01:51:25;101904.81;;;5.65;70.74
76285;BME280;65096;50.998;7.098;2022-12-01T01:53:59;101901.69;;;5.70;70.83
76285;BME280;65096;50.998;7.098;2022-12-01T01:56:28;101888.78;;;5.69;70.79
76285;BME280;65096;50.998;7.098;2022-12-01T01:58:55;101899.91;;;5.69;70.76
76285;BME280;65096;50.998;7.098;2022-12-01T02:01:23;101897.22;;;5.66;70.79
76285;BME280;65096;50.998;7.098;2022-12-01T02:03:51;101889.69;;;5.69;70.80
76285;BME280;65096;50.998;7.098;2022-12-01T02:06:19;101887.19;;;5.71;70.70
76285;BME280;65096;50.998;7.098;2022-12-01T02:08:46;101889.88;;;5.74;70.66
76285;BME280;65096;50.998;7.098;2022-12-01T02:11:45;101897.69;;;5.77;70.79
76285;BME280;65096;50.998;7.098;2022-12-01T02:14:30;101893.25;;;5.73;70.54
76285;BME280;65096;50.998;7.098;2022-12-01T02:17:07;101886.41;;;5.72;70.89
76285;BME280;65096;50.998;7.098;2022-12-01T02:20:02;101894.22;;;5.75;70.71
76285;BME280;65096;50.998;7.098;2022-12-01T02:22:46;101889.88;;;5.74;70.88
76285;BME280;65096;50.998;7.098;2022-12-01T02:25:20;101891.66;;;5.75;70.62
76285;BME280;65096;50.998;7.098;2022-12-01T02:28:09;101894.78;;;5.69;70.78
76285;BME280;65096;50.998;7.098;2022-12-01T02:30:43;101876.56;;;5.62;70.61
76285;BME280;65096;50.998;7.098;2022-12-01T02:33:17;101888.06;;;5.71;70.99
76285;BME280;65096;50.998;7.098;2022-12-01T02:35:51;101890.69;;;5.73;70.65
76285;BME280;65096;50.998;7.098;2022-12-01T02:38:24;101889.81;;;5.72;70.88
76285;BME280;65096;50.998;7.098;2022-12-01T02:40:55;101878.50;;;5.67;70.35
76285;BME280;65096;50.998;7.098;2022-12-01T02:43:28;101888.00;;;5.70;70.54
76285;BME280;65096;50.998;7.098;2022-12-01T02:46:04;101881.88;;;5.66;70.31
76285;BME280;65096;50.998;7.098;2022-12-01T02:48:38;101880.13;;;5.65;70.86
76285;BME280;65096;50.998;7.098;2022-12-01T02:51:08;101883.78;;;5.70;70.75
76285;BME280;65096;50.998;7.098;2022-12-01T02:53:37;101891.22;;;5.66;70.54
76285;BME280;65096;50.998;7.098;2022-12-01T02:56:06;101893.00;;;5.67;70.72
76285;BME280;65096;50.998;7.098;2022-12-01T02:58:33;101892.03;;;5.65;70.65
76285;BME280;65096;50.998;7.098;2022-12-01T03:01:19;101885.31;;;5.67;71.03
76285;BME280;65096;50.998;7.098;2022-12-01T03:04:01;101888.47;;;5.61;70.80
76285;BME280;65096;50.998;7.098;2022-12-01T03:06:42;101885.13;;;5.62;70.87
76285;BME280;65096;50.998;7.098;2022-12-01T03:09:19;101891.22;;;5.66;70.85
76285;BME280;65096;50.998;7.098;2022-12-01T03:11:56;101888.53;;;5.63;70.32
76285;BME280;65096;50.998;7.098;2022-12-01T03:14:34;101889.16;;;5.57;70.66
76285;BME280;65096;50.998;7.098;2022-12-01T03:17:10;101892.34;;;5.53;70.60
76285;BME280;65096;50.998;7.098;2022-12-01T03:19:42;101884.75;;;5.55;70.85
76285;BME280;65096;50.998;7.098;2022-12-01T03:22:12;101895.13;;;5.58;70.67
76285;BME280;65096;50.998;7.098;2022-12-01T03:24:42;101885.56;;;5.54;70.80
76285;BME280;65096;50.998;7.098;2022-12-01T03:27:11;101889.22;;;5.59;70.82
76285;BME280;65096;50.998;7.098;2022-12-01T03:29:43;101888.38;;;5.60;70.94
76285;BME280;65096;50.998;7.098;2022-12-01T03:32:14;101889.41;;;5.63;70.98
76285;BME280;65096;50.998;7.098;2022-12-01T03:34:46;101884.41;;;5.47;70.38
76285;BME280;65096;50.998;7.098;2022-12-01T03:37:19;101886.28;;;5.51;71.08
76285;BME280;65096;50.998;7.098;2022-12-01T03:39:48;101885.56;;;5.54;70.88
76285;BME280;65096;50.998;7.098;2022-12-01T03:42:19;101882.94;;;5.52;70.82
76285;BME280;65096;50.998;7.098;2022-12-01T03:44:51;101894.63;;;5.47;70.67
76285;BME280;65096;50.998;7.098;2022-12-01T03:47:22;101877.56;;;5.46;71.34
76285;BME280;65096;50.998;7.098;2022-12-01T03:49:51;101884.47;;;5.49;71.38
76285;BME280;65096;50.998;7.098;2022-12-01T03:52:27;101871.94;;;5.55;70.95
76285;BME280;65096;50.998;7.098;2022-12-01T03:55:05;101881.59;;;5.60;70.92
76285;BME280;65096;50.998;7.098;2022-12-01T03:57:37;101888.53;;;5.63;70.96
76285;BME280;65096;50.998;7.098;2022-12-01T04:00:07;101882.56;;;5.62;70.46
76285;BME280;65096;50.998;7.098;2022-12-01T04:02:37;101885.84;;;5.60;70.49
76285;BME280;65096;50.998;7.098;2022-12-01T04:05:04;101886.59;;;5.57;70.45
76285;BME280;65096;50.998;7.098;2022-12-01T04:07:31;101886.66;;;5.59;70.79
76285;BME280;65096;50.998;7.098;2022-12-01T04:09:57;101883.59;;;5.48;70.40
76285;BME280;65096;50.998;7.098;2022-12-01T04:12:24;101888.31;;;5.58;70.50
76285;BME280;65096;50.998;7.098;2022-12-01T04:14:57;101886.34;;;5.53;70.52
76285;BME280;65096;50.998;7.098;2022-12-01T04:17:24;101887.31;;;5.55;70.81
76285;BME280;65096;50.998;7.098;2022-12-01T04:19:53;101886.66;;;5.59;70.42
76285;BME280;65096;50.998;7.098;2022-12-01T04:22:19;101885.75;;;5.58;70.66
76285;BME280;65096;50.998;7.098;2022-12-01T04:24:46;101890.75;;;5.55;70.07
76285;BME280;65096;50.998;7.098;2022-12-01T04:27:13;101888.00;;;5.51;70.75
76285;BME280;65096;50.998;7.098;2022-12-01T04:29:40;101879.63;;;5.55;70.87
76285;BME280;65096;50.998;7.098;2022-12-01T04:32:06;101888.25;;;5.57;70.55
76285;BME280;65096;50.998;7.098;2022-12-01T04:34:33;101883.41;;;5.63;70.85
76285;BME280;65096;50.998;7.098;2022-12-01T04:37:02;101880.97;;;5.66;70.52
76285;BME280;65096;50.998;7.098;2022-12-01T04:39:29;101881.13;;;5.69;70.36
76285;BME280;65096;50.998;7.098;2022-12-01T04:41:55;101879.31;;;5.66;69.73
76285;BME280;65096;50.998;7.098;2022-12-01T04:44:22;101877.56;;;5.65;70.08
76285;BME280;65096;50.998;7.098;2022-12-01T04:46:50;101878.34;;;5.64;69.75
76285;BME280;65096;50.998;7.098;2022-12-01T04:49:17;101885.44;;;5.51;70.06
76285;BME280;65096;50.998;7.098;2022-12-01T04:51:44;101884.94;;;5.59;70.31
76285;BME280;65096;50.998;7.098;2022-12-01T04:54:12;101880.66;;;5.58;70.30
76285;BME280;65096;50.998;7.098;2022-12-01T04:56:39;101887.81;;;5.65;70.25
76285;BME280;65096;50.998;7.098;2022-12-01T04:59:06;101889.47;;;5.65;70.22
76285;BME280;65096;50.998;7.098;2022-12-01T05:01:33;101887.66;;;5.62;70.22
76285;BME280;65096;50.998;7.098;2022-12-01T05:04:00;101893.78;;;5.66;70.32
76285;BME280;65096;50.998;7.098;2022-12-01T05:06:27;101893.72;;;5.64;70.01
76285;BME280;65096;50.998;7.098;2022-12-01T05:08:56;101896.13;;;5.61;70.24
76285;BME280;65096;50.998;7.098;2022-12-01T05:11:25;101873.50;;;5.51;70.36
76285;BME280;65096;50.998;7.098;2022-12-01T05:13:52;101894.47;;;5.62;70.01
76285;BME280;65096;50.998;7.098;2022-12-01T05:16:20;101891.75;;;5.59;70.04
76285;BME280;65096;50.998;7.098;2022-12-01T05:18:48;101891.75;;;5.59;70.17
76285;BME280;65096;50.998;7.098;2022-12-01T05:21:15;101887.38;;;5.56;70.23
76285;BME280;65096;50.998;7.098;2022-12-01T05:23:41;101896.81;;;5.57;70.17
76285;BME280;65096;50.998;7.098;2022-12-01T05:26:09;101881.16;;;5.51;69.88
76285;BME280;65096;50.998;7.098;2022-12-01T05:28:37;101888.13;;;5.54;69.92
76285;BME280;65096;50.998;7.098;2022-12-01T05:31:05;101890.81;;;5.57;70.45
76285;BME280;65096;50.998;7.098;2022-12-01T05:33:32;101899.66;;;5.63;70.32
76285;BME280;65096;50.998;7.098;2022-12-01T05:35:58;101892.03;;;5.65;69.95
76285;BME280;65096;50.998;7.098;2022-12-01T05:38:25;101893.72;;;5.64;69.28
76285;BME280;65096;50.998;7.098;2022-12-01T05:40:52;101898.63;;;5.60;70.11
76285;BME280;65096;50.998;7.098;2022-12-01T05:43:21;101891.97;;;5.63;70.14
76285;BME280;65096;50.998;7.098;2022-12-01T05:45:49;101885.00;;;5.61;69.76
76285;BME280;65096;50.998;7.098;2022-12-01T05:48:16;101886.72;;;5.60;70.16
76285;BME280;65096;50.998;7.098;2022-12-01T05:50:43;101871.16;;;5.56;69.79
76285;BME280;65096;50.998;7.098;2022-12-01T05:53:10;101894.72;;;5.68;69.14
76285;BME280;65096;50.998;7.098;2022-12-01T05:55:37;101900.72;;;5.49;68.97
76285;BME280;65096;50.998;7.098;2022-12-01T05:58:04;101894.91;;;5.53;69.92
76285;BME280;65096;50.998;7.098;2022-12-01T06:00:31;101895.03;;;5.56;69.93
76285;BME280;65096;50.998;7.098;2022-12-01T06:02:59;101898.28;;;5.52;69.66
76285;BME280;65096;50.998;7.098;2022-12-01T06:05:26;101893.03;;;5.49;69.91
76285;BME280;65096;50.998;7.098;2022-12-01T06:07:53;101897.19;;;5.47;69.71
76285;BME280;65096;50.998;7.098;2022-12-01T06:10:20;101899.06;;;5.51;69.58
76285;BME280;65096;50.998;7.098;2022-12-01T06:12:47;101900.78;;;5.51;69.43
76285;BME280;65096;50.998;7.098;2022-12-01T06:15:15;101904.34;;;5.54;69.30
76285;BME280;65096;50.998;7.098;2022-12-01T06:17:42;101897.41;;;5.52;69.43
76285;BME280;65096;50.998;7.098;2022-12-01T06:20:11;101908.00;;;5.42;69.33
76285;BME280;65096;50.998;7.098;2022-12-01T06:22:38;101911.72;;;5.48;69.64
76285;BME280;65096;50.998;7.098;2022-12-01T06:25:05;101914.44;;;5.51;70.03
76285;BME280;65096;50.998;7.098;2022-12-01T06:27:32;101910.31;;;5.55;69.75
76285;BME280;65096;50.998;7.098;2022-12-01T06:29:59;101905.91;;;5.51;69.07
76285;BME280;65096;50.998;7.098;2022-12-01T06:32:25;101910.41;;;5.56;69.30
76285;BME280;65096;50.998;7.098;2022-12-01T06:34:52;101913.56;;;5.51;69.58
76285;BME280;65096;50.998;7.098;2022-12-01T06:37:20;101913.19;;;5.43;69.26
76285;BME280;65096;50.998;7.098;2022-12-01T06:39:47;101908.31;;;5.48;69.51
76285;BME280;65096;50.998;7.098;2022-12-01T06:42:13;101908.25;;;5.46;69.15
76285;BME280;65096;50.998;7.098;2022-12-01T06:44:40;101913.50;;;5.49;69.69
76285;BME280;65096;50.998;7.098;2022-12-01T06:47:07;101917.94;;;5.53;69.20
76285;BME280;65096;50.998;7.098;2022-12-01T06:49:35;101922.03;;;5.50;68.91
76285;BME280;65096;50.998;7.098;2022-12-01T06:52:02;101926.94;;;5.45;69.48
76285;BME280;65096;50.998;7.098;2022-12-01T06:54:30;101920.38;;;5.33;69.44
76285;BME280;65096;50.998;7.098;2022-12-01T06:56:57;101927.25;;;5.34;69.61
76285;BME280;65096;50.998;7.098;2022-12-01T06:59:24;101928.56;;;5.26;70.07
76285;BME280;65096;50.998;7.098;2022-12-01T07:01:51;101934.00;;;5.32;70.08
76285;BME280;65096;50.998;7.098;2022-12-01T07:04:18;101936.81;;;5.38;69.77
76285;BME280;65096;50.998;7.098;2022-12-01T07:06:44;101927.75;;;5.44;69.64
76285;BME280;65096;50.998;7.098;2022-12-01T07:09:11;101932.13;;;5.47;69.74
76285;BME280;65096;50.998;7.098;2022-12-01T07:11:39;101927.97;;;5.49;69.76
76285;BME280;65096;50.998;7.098;2022-12-01T07:14:06;101931.41;;;5.49;69.44
76285;BME280;65096;50.998;7.098;2022-12-01T07:16:37;101932.34;;;5.51;69.11
76285;BME280;65096;50.998;7.098;2022-12-01T07:19:03;101936.00;;;5.39;69.49
76285;BME280;65096;50.998;7.098;2022-12-01T07:21:30;101937.84;;;5.41;69.58
76285;BME280;65096;50.998;7.098;2022-12-01T07:23:56;101933.75;;;5.27;70.34
76285;BME280;65096;50.998;7.098;2022-12-01T07:26:23;101932.06;;;5.28;70.02
76285;BME280;65096;50.998;7.098;2022-12-01T07:28:51;101933.25;;;5.34;69.84
76285;BME280;65096;50.998;7.098;2022-12-01T07:31:18;101949.09;;;5.27;70.02
76285;BME280;65096;50.998;7.098;2022-12-01T07:33:45;101947.88;;;5.37;69.87
76285;BME280;65096;50.998;7.098;2022-12-01T07:36:12;101947.25;;;5.42;69.83
76285;BME280;65096;50.998;7.098;2022-12-01T07:38:39;101953.19;;;5.41;69.96
76285;BME280;65096;50.998;7.098;2022-12-01T07:41:07;101946.09;;;5.36;69.99
76285;BME280;65096;50.998;7.098;2022-12-01T07:43:37;101955.69;;;5.40;70.04
76285;BME280;65096;50.998;7.098;2022-12-01T07:46:08;101956.91;;;5.48;69.96
76285;BME280;65096;50.998;7.098;2022-12-01T07:48:36;101960.41;;;5.50;69.57
76285;BME280;65096;50.998;7.098;2022-12-01T07:51:03;101963.03;;;5.51;69.58
76285;BME280;65096;50.998;7.098;2022-12-01T07:53:30;101964.34;;;5.43;70.01
76285;BME280;65096;50.998;7.098;2022-12-01T07:55:57;101955.00;;;5.44;69.82
76285;BME280;65096;50.998;7.098;2022-12-01T07:58:24;101947.53;;;5.48;69.44
76285;BME280;65096;50.998;7.098;2022-12-01T08:00:51;101954.56;;;5.52;69.54
76285;BME280;65096;50.998;7.098;2022-12-01T08:03:19;101959.56;;;5.49;69.60
76285;BME280;65096;50.998;7.098;2022-12-01T08:05:54;101957.91;;;5.51;70.02
76285;BME280;65096;50.998;7.098;2022-12-01T08:08:21;101962.31;;;5.54;69.58
76285;BME280;65096;50.998;7.098;2022-12-01T08:10:48;101968.06;;;5.50;69.82
76285;BME280;65096;50.998;7.098;2022-12-01T08:13:15;101962.81;;;5.47;69.80
76285;BME280;65096;50.998;7.098;2022-12-01T08:15:41;101962.31;;;5.54;69.86
76285;BME280;65096;50.998;7.098;2022-12-01T08:18:08;101964.00;;;5.53;69.79
76285;BME280;65096;50.998;7.098;2022-12-01T08:20:36;101970.56;;;5.48;69.75
76285;BME280;65096;50.998;7.098;2022-12-01T08:23:03;101974.97;;;5.51;69.91
76285;BME280;65096;50.998;7.098;2022-12-01T08:25:30;101976.00;;;5.54;69.81
76285;BME280;65096;50.998;7.098;2022-12-01T08:27:58;101969.09;;;5.53;69.41
76285;BME280;65096;50.998;7.098;2022-12-01T08:30:26;101977.59;;;5.52;69.69
76285;BME280;65096;50.998;7.098;2022-12-01T08:32:53;101981.09;;;5.54;69.60
76285;BME280;65096;50.998;7.098;2022-12-01T08:35:20;101977.88;;;5.58;69.67
76285;BME280;65096;50.998;7.098;2022-12-01T08:37:50;101976.56;;;5.49;69.80
76285;BME280;65096;50.998;7.098;2022-12-01T08:40:17;101984.88;;;5.45;69.89
76285;BME280;65096;50.998;7.098;2022-12-01T08:42:44;101989.16;;;5.44;70.13
76285;BME280;65096;50.998;7.098;2022-12-01T08:45:11;101986.75;;;5.30;70.22
76285;BME280;65096;50.998;7.098;2022-12-01T08:47:38;101995.78;;;5.41;69.88
76285;BME280;65096;50.998;7.098;2022-12-01T08:50:06;101998.56;;;5.45;70.01
76285;BME280;65096;50.998;7.098;2022-12-01T08:52:33;101995.06;;;5.43;70.30
76285;BME280;65096;50.998;7.098;2022-12-01T08:55:02;101992.81;;;5.49;69.39
76285;BME280;65096;50.998;7.098;2022-12-01T08:57:29;101991.09;;;5.50;69.52
76285;BME280;65096;50.998;7.098;2022-12-01T08:59:56;101987.16;;;5.56;69.72
76285;BME280;65096;50.998;7.098;2022-12-01T09:02:23;101989.44;;;5.50;69.58
76285;BME280;65096;50.998;7.098;2022-12-01T09:04:50;101987.69;;;5.49;69.43
76285;BME280;65096;50.998;7.098;2022-12-01T09:07:17;101990.31;;;5.51;69.90
76285;BME280;65096;50.998;7.098;2022-12-01T09:09:45;101986.66;;;5.46;69.49
76285;BME280;65096;50.998;7.098;2022-12-01T09:12:13;101991.03;;;5.48;69.57
76285;BME280;65096;50.998;7.098;2022-12-01T09:14:41;101989.38;;;5.49;69.72
76285;BME280;65096;50.998;7.098;2022-12-01T09:17:12;101991.41;;;5.56;69.68
76285;BME280;65096;50.998;7.098;2022-12-01T09:19:39;101990.66;;;5.58;69.42
76285;BME280;65096;50.998;7.098;2022-12-01T09:22:06;102007.69;;;5.58;69.47
76285;BME280;65096;50.998;7.098;2022-12-01T09:24:33;101997.75;;;5.64;69.68
76285;BME280;65096;50.998;7.098;2022-12-01T09:27:00;101998.09;;;5.71;69.17
76285;BME280;65096;50.998;7.098;2022-12-01T09:29:29;101999.66;;;5.68;69.16
76285;BME280;65096;50.998;7.098;2022-12-01T09:31:57;102002.28;;;5.69;68.91
76285;BME280;65096;50.998;7.098;2022-12-01T09:34:25;102006.00;;;5.76;68.79
76285;BME280;65096;50.998;7.098;2022-12-01T09:36:54;102006.59;;;5.70;68.72
76285;BME280;65096;50.998;7.098;2022-12-01T09:39:21;102012.44;;;5.68;69.17
76285;BME280;65096;50.998;7.098;2022-12-01T09:41:50;102014.09;;;5.67;68.25
76285;BME280;65096;50.998;7.098;2022-12-01T09:44:29;101976.78;;;5.53;69.19
76285;BME280;65096;50.998;7.098;2022-12-01T09:47:04;102009.31;;;5.73;68.96
76285;BME280;65096;50.998;7.098;2022-12-01T09:49:40;102007.47;;;5.71;68.21
76285;BME280;65096;50.998;7.098;2022-12-01T09:52:10;102006.28;;;5.64;68.96
76285;BME280;65096;50.998;7.098;2022-12-01T09:54:38;102006.38;;;5.66;68.87
76285;BME280;65096;50.998;7.098;2022-12-01T09:57:08;102008.47;;;5.74;68.86
76285;BME280;65096;50.998;7.098;2022-12-01T09:59:39;101999.13;;;5.75;68.38
76285;BME280;65096;50.998;7.098;2022-12-01T10:02:21;102001.84;;;5.78;68.70
76285;BME280;65096;50.998;7.098;2022-12-01T10:04:52;102004.25;;;5.75;68.82
76285;BME280;65096;50.998;7.098;2022-12-01T10:07:23;101999.28;;;5.78;68.53
76285;BME280;65096;50.998;7.098;2022-12-01T10:09:53;101992.44;;;5.78;68.40
76285;BME280;65096;50.998;7.098;2022-12-01T10:12:22;102000.81;;;5.74;68.07
76285;BME280;65096;50.998;7.098;2022-12-01T10:14:57;101999.13;;;5.75;68.55
76285;BME280;65096;50.998;7.098;2022-12-01T10:17:33;101991.31;;;5.72;68.61
76285;BME280;65096;50.998;7.098;2022-12-01T10:20:07;101987.25;;;5.77;68.41
76285;BME280;65096;50.998;7.098;2022-12-01T10:23:09;101985.66;;;5.79;68.44
76285;BME280;65096;50.998;7.098;2022-12-01T10:25:49;101988.06;;;5.76;68.26
76285;BME280;65096;50.998;7.098;2022-12-01T10:28:38;101993.13;;;5.74;68.20
76285;BME280;65096;50.998;7.098;2022-12-01T10:31:16;101983.78;;;5.75;67.63
76285;BME280;65096;50.998;7.098;2022-12-01T10:33:53;101979.44;;;5.74;68.13
76285;BME280;65096;50.998;7.098;2022-12-01T10:36:21;101986.28;;;5.73;68.10
76285;BME280;65096;50.998;7.098;2022-12-01T10:38:48;101982.97;;;5.76;68.68
76285;BME280;65096;50.998;7.098;2022-12-01T10:41:17;101984.94;;;5.81;68.32
76285;BME280;65096;50.998;7.098;2022-12-01T10:43:50;101980.81;;;5.85;68.13
76285;BME280;65096;50.998;7.098;2022-12-01T10:46:22;101980.16;;;5.89;67.56
76285;BME280;65096;50.998;7.098;2022-12-01T10:48:54;101974.97;;;5.87;67.20
76285;BME280;65096;50.998;7.098;2022-12-01T10:51:22;101985.41;;;5.92;67.42
76285;BME280;65096;50.998;7.098;2022-12-01T10:53:49;101983.59;;;5.89;67.32
76285;BME280;65096;50.998;7.098;2022-12-01T10:56:22;101982.72;;;5.89;67.68
76285;BME280;65096;50.998;7.098;2022-12-01T10:58:51;101980.97;;;5.88;67.36
76285;BME280;65096;50.998;7.098;2022-12-01T11:01:21;101972.53;;;5.90;67.38
76285;BME280;65096;50.998;7.098;2022-12-01T11:03:50;101968.25;;;5.89;67.33
76285;BME280;65096;50.998;7.098;2022-12-01T11:06:21;101978.66;;;5.75;66.72
76285;BME280;65096;50.998;7.098;2022-12-01T11:08:55;101970.50;;;5.83;66.62
76285;BME280;65096;50.998;7.098;2022-12-01T11:11:29;101966.19;;;5.82;66.25
76285;BME280;65096;50.998;7.098;2022-12-01T11:13:58;101968.38;;;5.92;65.89
76285;BME280;65096;50.998;7.098;2022-12-01T11:16:41;101969.97;;;5.90;64.55
76285;BME280;65096;50.998;7.098;2022-12-01T11:19:17;101977.59;;;5.89;65.57
76285;BME280;65096;50.998;7.098;2022-12-01T11:21:48;101977.59;;;5.89;65.04
76285;BME280;65096;50.998;7.098;2022-12-01T11:24:28;101978.25;;;5.85;64.90
76285;BME280;65096;50.998;7.098;2022-12-01T11:26:56;101981.03;;;5.89;63.97
76285;BME280;65096;50.998;7.098;2022-12-01T11:29:31;101972.22;;;5.83;63.98
76285;BME280;65096;50.998;7.098;2022-12-01T11:32:17;101964.78;;;5.89;64.27
76285;BME280;65096;50.998;7.098;2022-12-01T11:34:49;101970.88;;;5.91;64.95
76285;BME280;65096;50.998;7.098;2022-12-01T11:37:19;101967.63;;;5.95;64.99
76285;BME280;65096;50.998;7.098;2022-12-01T11:39:47;101953.47;;;5.84;64.20
76285;BME280;65096;50.998;7.098;2022-12-01T11:42:21;101965.13;;;5.96;65.31
76285;BME280;65096;50.998;7.098;2022-12-01T11:44:51;101966.59;;;5.91;64.57
76285;BME280;65096;50.998;7.098;2022-12-01T11:47:21;101971.47;;;5.85;64.99
76285;BME280;65096;50.998;7.098;2022-12-01T11:49:53;101961.47;;;5.91;64.97
76285;BME280;65096;50.998;7.098;2022-12-01T11:52:27;101959.06;;;5.94;63.76
76285;BME280;65096;50.998;7.098;2022-12-01T11:55:00;101956.78;;;6.00;63.72
76285;BME280;65096;50.998;7.098;2022-12-01T11:57:28;101959.56;;;6.05;63.83
76285;BME280;65096;50.998;7.098;2022-12-01T11:59:56;101958.28;;;5.95;63.86
76285;BME280;65096;50.998;7.098;2022-12-01T12:02:32;101955.03;;;5.99;64.21
76285;BME280;65096;50.998;7.098;2022-12-01T12:07:53;101955.16;;;6.02;64.14
76285;BME280;65096;50.998;7.098;2022-12-01T12:10:32;101946.50;;;5.99;62.28
76285;BME280;65096;50.998;7.098;2022-12-01T12:16:12;101948.28;;;5.82;63.49
76285;BME280;65096;50.998;7.098;2022-12-01T12:18:53;101956.16;;;5.87;64.45
76285;BME280;65096;50.998;7.098;2022-12-01T12:21:30;101945.34;;;5.92;64.00
76285;BME280;65096;50.998;7.098;2022-12-01T12:24:21;101953.94;;;5.94;64.29
76285;BME280;65096;50.998;7.098;2022-12-01T12:26:55;101935.22;;;5.95;63.62
76285;BME280;65096;50.998;7.098;2022-12-01T12:29:41;101940.81;;;6.06;64.37
76285;BME280;65096;50.998;7.098;2022-12-01T12:32:25;101941.69;;;6.06;63.05
76285;BME280;65096;50.998;7.098;2022-12-01T12:35:07;101939.72;;;6.01;62.96
76285;BME280;65096;50.998;7.098;2022-12-01T12:37:46;101940.63;;;6.01;62.51
76285;BME280;65096;50.998;7.098;2022-12-01T12:40:29;101935.56;;;6.03;63.27
76285;BME280;65096;50.998;7.098;2022-12-01T12:43:07;101934.53;;;5.99;62.11
76285;BME280;65096;50.998;7.098;2022-12-01T12:45:51;101929.34;;;5.98;62.11
76285;BME280;65096;50.998;7.098;2022-12-01T12:48:30;101910.91;;;5.86;61.95
76285;BME280;65096;50.998;7.098;2022-12-01T12:51:06;101931.78;;;5.95;62.38
76285;BME280;65096;50.998;7.098;2022-12-01T12:53:40;101933.19;;;5.88;62.54
76285;BME280;65096;50.998;7.098;2022-12-01T12:56:13;101927.34;;;5.91;62.20
76285;BME280;65096;50.998;7.098;2022-12-01T12:58:48;101922.44;;;5.95;62.13
76285;BME280;65096;50.998;7.098;2022-12-01T13:01:22;101917.38;;;5.97;62.22
76285;BME280;65096;50.998;7.098;2022-12-01T13:03:53;101913.28;;;6.00;61.55
76285;BME280;65096;50.998;7.098;2022-12-01T13:06:24;101914.13;;;6.01;61.07
76285;BME280;65096;50.998;7.098;2022-12-01T13:08:57;101915.06;;;6.03;60.90
76285;BME280;65096;50.998;7.098;2022-12-01T13:11:29;101914.63;;;5.92;61.33
76285;BME280;65096;50.998;7.098;2022-12-01T13:14:02;101918.31;;;5.99;61.23
76285;BME280;65096;50.998;7.098;2022-12-01T13:16:34;101911.78;;;6.05;61.57
76285;BME280;65096;50.998;7.098;2022-12-01T13:19:06;101910.09;;;6.06;61.83
76285;BME280;65096;50.998;7.098;2022-12-01T13:21:40;101905.31;;;6.13;62.10